sensor_id;sensor_type;location;lat;lon;timestamp;P1;durP1;ratioP1;P2;durP2;ratioP2
23670;SDS011;12012;51.998;7.614;2023-08-01T00:00:31;3.22;;;2.72;;
23670;SDS011;12012;51.998;7.614;2023-08-01T00:02:58;2.60;;;2.40;;
23670;SDS011;12012;51.998;7.614;2023-08-01T00:05:24;4.15;;;2.38;;
23670;SDS011;12012;51.998;7.614;2023-08-01T00:07:49;6.07;;;2.92;;
23670;SDS011;12012;51.998;7.614;2023-08-01T00:10:15;4.65;;;2.75;;
23670;SDS011;12012;51.998;7.614;2023-08-01T00:12:41;4.60;;;2.70;;
23670;SDS011;12012;51.998;7.614;2023-08-01T00:15:07;3.65;;;2.45;;
23670;SDS011;12012;51.998;7.614;2023-08-01T00:17:33;4.95;;;2.70;;
23670;SDS011;12012;51.998;7.614;2023-08-01T00:19:59;4.32;;;2.90;;
23670;SDS011;12012;51.998;7.614;2023-08-01T00:22:26;4.28;;;2.38;;
23670;SDS011;12012;51.998;7.614;2023-08-01T00:24:51;3.75;;;2.67;;
23670;SDS011;12012;51.998;7.614;2023-08-01T00:27:17;3.78;;;2.47;;
23670;SDS011;12012;51.998;7.614;2023-08-01T00:29:42;4.28;;;3.08;;
23670;SDS011;12012;51.998;7.614;2023-08-01T00:32:08;5.25;;;3.47;;
23670;SDS011;12012;51.998;7.614;2023-08-01T00:34:34;4.78;;;2.53;;
23670;SDS011;12012;51.998;7.614;2023-08-01T00:36:59;3.30;;;2.90;;
23670;SDS011;12012;51.998;7.614;2023-08-01T00:39:25;5.05;;;2.88;;
23670;SDS011;12012;51.998;7.614;2023-08-01T00:41:50;3.65;;;2.90;;
23670;SDS011;12012;51.998;7.614;2023-08-01T00:44:16;4.88;;;2.85;;
23670;SDS011;12012;51.998;7.614;2023-08-01T00:46:41;4.22;;;2.65;;
23670;SDS011;12012;51.998;7.614;2023-08-01T00:49:07;4.43;;;2.70;;
23670;SDS011;12012;51.998;7.614;2023-08-01T00:51:33;5.05;;;3.35;;
23670;SDS011;12012;51.998;7.614;2023-08-01T00:53:59;6.50;;;2.80;;
23670;SDS011;12012;51.998;7.614;2023-08-01T00:56:25;3.75;;;3.20;;
23670;SDS011;12012;51.998;7.614;2023-08-01T00:58:51;4.75;;;2.67;;
23670;SDS011;12012;51.998;7.614;2023-08-01T01:01:16;4.05;;;2.25;;
23670;SDS011;12012;51.998;7.614;2023-08-01T01:03:42;3.40;;;3.10;;
23670;SDS011;12012;51.998;7.614;2023-08-01T01:06:22;3.70;;;2.90;;
23670;SDS011;12012;51.998;7.614;2023-08-01T01:08:51;4.57;;;2.95;;
23670;SDS011;12012;51.998;7.614;2023-08-01T01:11:16;3.80;;;3.05;;
23670;SDS011;12012;51.998;7.614;2023-08-01T01:13:42;2.58;;;2.38;;
23670;SDS011;12012;51.998;7.614;2023-08-01T01:16:07;3.10;;;2.80;;
23670;SDS011;12012;51.998;7.614;2023-08-01T01:18:33;3.63;;;2.83;;
23670;SDS011;12012;51.998;7.614;2023-08-01T01:20:59;3.97;;;2.65;;
23670;SDS011;12012;51.998;7.614;2023-08-01T01:23:24;2.83;;;2.22;;
23670;SDS011;12012;51.998;7.614;2023-08-01T01:25:52;3.63;;;3.22;;
23670;SDS011;12012;51.998;7.614;2023-08-01T01:28:19;4.40;;;2.97;;
23670;SDS011;12012;51.998;7.614;2023-08-01T01:30:45;3.70;;;2.05;;
23670;SDS011;12012;51.998;7.614;2023-08-01T01:33:11;3.85;;;3.05;;
23670;SDS011;12012;51.998;7.614;2023-08-01T01:35:37;4.10;;;2.60;;
23670;SDS011;12012;51.998;7.614;2023-08-01T01:38:03;3.67;;;2.60;;
23670;SDS011;12012;51.998;7.614;2023-08-01T01:40:30;4.47;;;1.90;;
23670;SDS011;12012;51.998;7.614;2023-08-01T01:42:56;4.20;;;2.70;;
23670;SDS011;12012;51.998;7.614;2023-08-01T01:45:22;4.35;;;3.08;;
23670;SDS011;12012;51.998;7.614;2023-08-01T01:47:47;6.55;;;3.25;;
23670;SDS011;12012;51.998;7.614;2023-08-01T01:50:13;3.80;;;2.60;;
23670;SDS011;12012;51.998;7.614;2023-08-01T01:52:38;4.25;;;2.55;;
23670;SDS011;12012;51.998;7.614;2023-08-01T01:55:04;2.75;;;2.28;;
23670;SDS011;12012;51.998;7.614;2023-08-01T01:57:30;4.13;;;2.85;;
23670;SDS011;12012;51.998;7.614;2023-08-01T01:59:55;4.07;;;2.25;;
23670;SDS011;12012;51.998;7.614;2023-08-01T02:02:21;2.85;;;2.33;;
23670;SDS011;12012;51.998;7.614;2023-08-01T02:04:47;5.72;;;2.40;;
23670;SDS011;12012;51.998;7.614;2023-08-01T02:07:14;3.15;;;2.33;;
23670;SDS011;12012;51.998;7.614;2023-08-01T02:09:40;5.50;;;2.92;;
23670;SDS011;12012;51.998;7.614;2023-08-01T02:12:06;3.60;;;2.38;;
23670;SDS011;12012;51.998;7.614;2023-08-01T02:14:34;3.80;;;2.58;;
23670;SDS011;12012;51.998;7.614;2023-08-01T02:17:00;3.40;;;2.78;;
23670;SDS011;12012;51.998;7.614;2023-08-01T02:19:26;3.75;;;3.42;;
23670;SDS011;12012;51.998;7.614;2023-08-01T02:21:51;3.97;;;2.80;;
23670;SDS011;12012;51.998;7.614;2023-08-01T02:24:18;4.63;;;3.58;;
23670;SDS011;12012;51.998;7.614;2023-08-01T02:26:43;3.30;;;2.72;;
23670;SDS011;12012;51.998;7.614;2023-08-01T02:29:09;2.50;;;2.30;;
23670;SDS011;12012;51.998;7.614;2023-08-01T02:31:34;4.50;;;3.45;;
23670;SDS011;12012;51.998;7.614;2023-08-01T02:34:00;3.63;;;3.28;;
23670;SDS011;12012;51.998;7.614;2023-08-01T02:36:26;6.65;;;2.95;;
23670;SDS011;12012;51.998;7.614;2023-08-01T02:38:51;5.88;;;3.65;;
23670;SDS011;12012;51.998;7.614;2023-08-01T02:41:20;4.15;;;3.75;;
23670;SDS011;12012;51.998;7.614;2023-08-01T02:43:45;6.28;;;3.80;;
23670;SDS011;12012;51.998;7.614;2023-08-01T02:46:11;9.77;;;5.68;;
23670;SDS011;12012;51.998;7.614;2023-08-01T02:48:36;5.60;;;4.57;;
23670;SDS011;12012;51.998;7.614;2023-08-01T02:51:02;5.85;;;4.32;;
23670;SDS011;12012;51.998;7.614;2023-08-01T02:53:27;8.95;;;5.28;;
23670;SDS011;12012;51.998;7.614;2023-08-01T02:55:53;10.80;;;6.60;;
23670;SDS011;12012;51.998;7.614;2023-08-01T02:58:18;8.27;;;6.07;;
23670;SDS011;12012;51.998;7.614;2023-08-01T03:00:44;9.45;;;6.20;;
23670;SDS011;12012;51.998;7.614;2023-08-01T03:03:10;9.07;;;7.10;;
23670;SDS011;12012;51.998;7.614;2023-08-01T03:05:36;11.13;;;6.57;;
23670;SDS011;12012;51.998;7.614;2023-08-01T03:08:02;7.95;;;5.95;;
23670;SDS011;12012;51.998;7.614;2023-08-01T03:10:28;8.45;;;5.03;;
23670;SDS011;12012;51.998;7.614;2023-08-01T03:12:54;7.57;;;5.88;;
23670;SDS011;12012;51.998;7.614;2023-08-01T03:15:20;8.57;;;5.43;;
23670;SDS011;12012;51.998;7.614;2023-08-01T03:17:45;9.30;;;4.50;;
23670;SDS011;12012;51.998;7.614;2023-08-01T03:20:11;12.57;;;6.93;;
23670;SDS011;12012;51.998;7.614;2023-08-01T03:22:38;13.00;;;6.97;;
23670;SDS011;12012;51.998;7.614;2023-08-01T03:25:05;8.57;;;5.78;;
23670;SDS011;12012;51.998;7.614;2023-08-01T03:27:34;14.48;;;8.40;;
23670;SDS011;12012;51.998;7.614;2023-08-01T03:30:00;8.07;;;5.53;;
23670;SDS011;12012;51.998;7.614;2023-08-01T03:32:26;9.13;;;7.10;;
23670;SDS011;12012;51.998;7.614;2023-08-01T03:34:51;10.18;;;5.82;;
23670;SDS011;12012;51.998;7.614;2023-08-01T03:37:17;8.60;;;6.47;;
23670;SDS011;12012;51.998;7.614;2023-08-01T03:39:43;13.93;;;8.23;;
23670;SDS011;12012;51.998;7.614;2023-08-01T03:42:08;10.68;;;6.30;;
23670;SDS011;12012;51.998;7.614;2023-08-01T03:44:34;12.75;;;6.93;;
23670;SDS011;12012;51.998;7.614;2023-08-01T03:47:00;11.70;;;7.57;;
23670;SDS011;12012;51.998;7.614;2023-08-01T03:49:25;12.40;;;7.72;;
23670;SDS011;12012;51.998;7.614;2023-08-01T03:51:51;15.13;;;8.43;;
23670;SDS011;12012;51.998;7.614;2023-08-01T03:54:16;12.75;;;7.78;;
23670;SDS011;12012;51.998;7.614;2023-08-01T03:56:42;13.95;;;8.45;;
23670;SDS011;12012;51.998;7.614;2023-08-01T03:59:09;15.10;;;8.40;;
23670;SDS011;12012;51.998;7.614;2023-08-01T04:01:36;14.27;;;7.88;;
23670;SDS011;12012;51.998;7.614;2023-08-01T04:04:02;14.27;;;8.02;;
23670;SDS011;12012;51.998;7.614;2023-08-01T04:06:27;11.75;;;6.88;;
23670;SDS011;12012;51.998;7.614;2023-08-01T04:08:53;14.00;;;8.18;;
23670;SDS011;12012;51.998;7.614;2023-08-01T04:11:21;14.20;;;7.45;;
23670;SDS011;12012;51.998;7.614;2023-08-01T04:13:47;23.15;;;9.93;;
23670;SDS011;12012;51.998;7.614;2023-08-01T04:16:12;16.85;;;9.70;;
23670;SDS011;12012;51.998;7.614;2023-08-01T04:18:38;19.20;;;10.30;;
23670;SDS011;12012;51.998;7.614;2023-08-01T04:21:03;17.33;;;9.93;;
23670;SDS011;12012;51.998;7.614;2023-08-01T04:23:29;16.70;;;10.15;;
23670;SDS011;12012;51.998;7.614;2023-08-01T04:25:55;19.05;;;10.90;;
23670;SDS011;12012;51.998;7.614;2023-08-01T04:28:20;16.60;;;9.18;;
23670;SDS011;12012;51.998;7.614;2023-08-01T04:30:51;19.30;;;11.05;;
23670;SDS011;12012;51.998;7.614;2023-08-01T04:33:17;14.60;;;7.60;;
23670;SDS011;12012;51.998;7.614;2023-08-01T04:35:43;20.35;;;10.10;;
23670;SDS011;12012;51.998;7.614;2023-08-01T04:38:09;18.00;;;10.75;;
23670;SDS011;12012;51.998;7.614;2023-08-01T04:40:35;11.73;;;7.78;;
23670;SDS011;12012;51.998;7.614;2023-08-01T04:43:01;20.35;;;10.40;;
23670;SDS011;12012;51.998;7.614;2023-08-01T04:45:27;17.98;;;10.52;;
23670;SDS011;12012;51.998;7.614;2023-08-01T04:47:53;17.90;;;8.55;;
23670;SDS011;12012;51.998;7.614;2023-08-01T04:50:18;16.08;;;9.38;;
23670;SDS011;12012;51.998;7.614;2023-08-01T04:52:44;19.83;;;10.50;;
23670;SDS011;12012;51.998;7.614;2023-08-01T04:55:09;17.98;;;9.95;;
23670;SDS011;12012;51.998;7.614;2023-08-01T04:57:35;17.25;;;9.38;;
23670;SDS011;12012;51.998;7.614;2023-08-01T05:00:01;13.27;;;7.45;;
23670;SDS011;12012;51.998;7.614;2023-08-01T05:02:27;15.27;;;9.00;;
23670;SDS011;12012;51.998;7.614;2023-08-01T05:04:52;18.17;;;9.77;;
23670;SDS011;12012;51.998;7.614;2023-08-01T05:07:18;19.95;;;9.60;;
23670;SDS011;12012;51.998;7.614;2023-08-01T05:09:43;18.77;;;9.98;;
23670;SDS011;12012;51.998;7.614;2023-08-01T05:12:09;16.65;;;9.05;;
23670;SDS011;12012;51.998;7.614;2023-08-01T05:14:34;24.02;;;11.02;;
23670;SDS011;12012;51.998;7.614;2023-08-01T05:17:00;15.57;;;9.52;;
23670;SDS011;12012;51.998;7.614;2023-08-01T05:19:26;17.60;;;8.95;;
23670;SDS011;12012;51.998;7.614;2023-08-01T05:21:51;23.13;;;10.63;;
23670;SDS011;12012;51.998;7.614;2023-08-01T05:24:17;18.88;;;9.95;;
23670;SDS011;12012;51.998;7.614;2023-08-01T05:26:42;22.05;;;10.20;;
23670;SDS011;12012;51.998;7.614;2023-08-01T05:29:08;20.50;;;10.68;;
23670;SDS011;12012;51.998;7.614;2023-08-01T05:31:33;17.92;;;9.90;;
23670;SDS011;12012;51.998;7.614;2023-08-01T05:33:59;20.45;;;11.40;;
23670;SDS011;12012;51.998;7.614;2023-08-01T05:36:24;24.25;;;12.85;;
23670;SDS011;12012;51.998;7.614;2023-08-01T05:38:50;20.67;;;12.00;;
23670;SDS011;12012;51.998;7.614;2023-08-01T05:41:15;19.13;;;11.43;;
23670;SDS011;12012;51.998;7.614;2023-08-01T05:43:41;23.83;;;11.80;;
23670;SDS011;12012;51.998;7.614;2023-08-01T05:46:07;24.15;;;10.70;;
23670;SDS011;12012;51.998;7.614;2023-08-01T05:48:32;21.25;;;10.45;;
23670;SDS011;12012;51.998;7.614;2023-08-01T05:50:58;16.08;;;9.68;;
23670;SDS011;12012;51.998;7.614;2023-08-01T05:53:23;19.88;;;11.68;;
23670;SDS011;12012;51.998;7.614;2023-08-01T05:55:49;16.98;;;9.73;;
23670;SDS011;12012;51.998;7.614;2023-08-01T05:58:15;26.40;;;14.07;;
23670;SDS011;12012;51.998;7.614;2023-08-01T06:00:40;25.02;;;12.95;;
23670;SDS011;12012;51.998;7.614;2023-08-01T06:03:06;20.70;;;12.90;;
23670;SDS011;12012;51.998;7.614;2023-08-01T06:05:32;23.23;;;14.52;;
23670;SDS011;12012;51.998;7.614;2023-08-01T06:07:57;27.45;;;14.27;;
23670;SDS011;12012;51.998;7.614;2023-08-01T06:10:23;22.95;;;12.55;;
23670;SDS011;12012;51.998;7.614;2023-08-01T06:12:48;19.35;;;12.15;;
23670;SDS011;12012;51.998;7.614;2023-08-01T06:15:14;24.05;;;12.32;;
23670;SDS011;12012;51.998;7.614;2023-08-01T06:17:39;20.08;;;13.50;;
23670;SDS011;12012;51.998;7.614;2023-08-01T06:20:05;27.27;;;14.60;;
23670;SDS011;12012;51.998;7.614;2023-08-01T06:22:31;23.25;;;14.55;;
23670;SDS011;12012;51.998;7.614;2023-08-01T06:24:57;24.60;;;16.05;;
23670;SDS011;12012;51.998;7.614;2023-08-01T06:27:22;20.65;;;14.07;;
23670;SDS011;12012;51.998;7.614;2023-08-01T06:29:49;20.75;;;14.25;;
23670;SDS011;12012;51.998;7.614;2023-08-01T06:32:15;25.00;;;15.70;;
23670;SDS011;12012;51.998;7.614;2023-08-01T06:34:40;19.00;;;12.10;;
23670;SDS011;12012;51.998;7.614;2023-08-01T06:37:06;23.15;;;13.90;;
23670;SDS011;12012;51.998;7.614;2023-08-01T06:39:32;24.38;;;13.90;;
23670;SDS011;12012;51.998;7.614;2023-08-01T06:41:57;26.55;;;14.38;;
23670;SDS011;12012;51.998;7.614;2023-08-01T06:44:23;22.00;;;13.48;;
23670;SDS011;12012;51.998;7.614;2023-08-01T06:46:48;21.65;;;11.20;;
23670;SDS011;12012;51.998;7.614;2023-08-01T06:49:14;17.40;;;11.63;;
23670;SDS011;12012;51.998;7.614;2023-08-01T06:51:39;17.65;;;13.27;;
23670;SDS011;12012;51.998;7.614;2023-08-01T06:54:06;22.90;;;13.40;;
23670;SDS011;12012;51.998;7.614;2023-08-01T06:56:32;25.98;;;14.63;;
23670;SDS011;12012;51.998;7.614;2023-08-01T06:58:58;22.27;;;13.68;;
23670;SDS011;12012;51.998;7.614;2023-08-01T07:01:23;20.40;;;12.93;;
23670;SDS011;12012;51.998;7.614;2023-08-01T07:03:49;18.13;;;10.05;;
23670;SDS011;12012;51.998;7.614;2023-08-01T07:06:17;12.93;;;8.55;;
23670;SDS011;12012;51.998;7.614;2023-08-01T07:08:42;11.60;;;5.90;;
23670;SDS011;12012;51.998;7.614;2023-08-01T07:11:08;11.30;;;6.18;;
23670;SDS011;12012;51.998;7.614;2023-08-01T07:13:34;8.25;;;5.32;;
23670;SDS011;12012;51.998;7.614;2023-08-01T07:15:59;14.40;;;5.60;;
23670;SDS011;12012;51.998;7.614;2023-08-01T07:18:25;10.25;;;5.53;;
23670;SDS011;12012;51.998;7.614;2023-08-01T07:21:03;14.35;;;5.32;;
23670;SDS011;12012;51.998;7.614;2023-08-01T07:23:30;11.18;;;5.50;;
23670;SDS011;12012;51.998;7.614;2023-08-01T07:25:56;8.13;;;5.22;;
23670;SDS011;12012;51.998;7.614;2023-08-01T07:28:22;20.05;;;6.38;;
23670;SDS011;12012;51.998;7.614;2023-08-01T07:30:47;11.23;;;5.05;;
23670;SDS011;12012;51.998;7.614;2023-08-01T07:33:13;10.48;;;5.35;;
23670;SDS011;12012;51.998;7.614;2023-08-01T07:35:38;8.05;;;4.72;;
23670;SDS011;12012;51.998;7.614;2023-08-01T07:38:04;10.23;;;5.05;;
23670;SDS011;12012;51.998;7.614;2023-08-01T07:40:29;6.50;;;4.70;;
23670;SDS011;12012;51.998;7.614;2023-08-01T07:42:55;11.98;;;4.90;;
23670;SDS011;12012;51.998;7.614;2023-08-01T07:45:20;7.90;;;5.13;;
23670;SDS011;12012;51.998;7.614;2023-08-01T07:47:47;7.28;;;4.60;;
23670;SDS011;12012;51.998;7.614;2023-08-01T07:50:12;9.65;;;4.97;;
23670;SDS011;12012;51.998;7.614;2023-08-01T07:52:38;6.63;;;5.00;;
23670;SDS011;12012;51.998;7.614;2023-08-01T07:55:04;8.55;;;5.07;;
23670;SDS011;12012;51.998;7.614;2023-08-01T07:57:30;8.88;;;5.93;;
23670;SDS011;12012;51.998;7.614;2023-08-01T07:59:55;22.75;;;12.75;;
23670;SDS011;12012;51.998;7.614;2023-08-01T08:02:21;21.98;;;12.18;;
23670;SDS011;12012;51.998;7.614;2023-08-01T08:04:46;26.17;;;11.93;;
23670;SDS011;12012;51.998;7.614;2023-08-01T08:07:12;18.80;;;10.90;;
23670;SDS011;12012;51.998;7.614;2023-08-01T08:09:37;18.23;;;11.05;;
23670;SDS011;12012;51.998;7.614;2023-08-01T08:12:03;17.58;;;10.27;;
23670;SDS011;12012;51.998;7.614;2023-08-01T08:14:29;15.80;;;9.38;;
23670;SDS011;12012;51.998;7.614;2023-08-01T08:16:55;20.23;;;10.75;;
23670;SDS011;12012;51.998;7.614;2023-08-01T08:19:20;18.02;;;9.63;;
23670;SDS011;12012;51.998;7.614;2023-08-01T08:21:49;20.20;;;9.13;;
23670;SDS011;12012;51.998;7.614;2023-08-01T08:24:14;16.23;;;8.50;;
23670;SDS011;12012;51.998;7.614;2023-08-01T08:26:40;12.85;;;7.85;;
23670;SDS011;12012;51.998;7.614;2023-08-01T08:29:05;11.90;;;7.43;;
23670;SDS011;12012;51.998;7.614;2023-08-01T08:31:31;13.57;;;7.97;;
23670;SDS011;12012;51.998;7.614;2023-08-01T08:33:56;13.77;;;7.45;;
23670;SDS011;12012;51.998;7.614;2023-08-01T08:36:22;13.15;;;7.80;;
23670;SDS011;12012;51.998;7.614;2023-08-01T08:38:47;13.93;;;7.78;;
23670;SDS011;12012;51.998;7.614;2023-08-01T08:41:16;16.70;;;7.65;;
23670;SDS011;12012;51.998;7.614;2023-08-01T08:43:46;13.77;;;7.80;;
23670;SDS011;12012;51.998;7.614;2023-08-01T08:46:14;17.42;;;8.18;;
23670;SDS011;12012;51.998;7.614;2023-08-01T08:48:41;15.52;;;8.35;;
23670;SDS011;12012;51.998;7.614;2023-08-01T08:51:09;13.68;;;7.95;;
23670;SDS011;12012;51.998;7.614;2023-08-01T08:53:35;15.98;;;7.85;;
23670;SDS011;12012;51.998;7.614;2023-08-01T08:56:01;11.98;;;6.88;;
23670;SDS011;12012;51.998;7.614;2023-08-01T08:58:28;11.85;;;7.25;;
23670;SDS011;12012;51.998;7.614;2023-08-01T09:00:56;12.52;;;7.03;;
23670;SDS011;12012;51.998;7.614;2023-08-01T09:03:23;10.80;;;6.45;;
23670;SDS011;12012;51.998;7.614;2023-08-01T09:05:49;10.82;;;6.53;;
23670;SDS011;12012;51.998;7.614;2023-08-01T09:08:20;12.98;;;7.15;;
23670;SDS011;12012;51.998;7.614;2023-08-01T09:10:46;10.73;;;6.53;;
23670;SDS011;12012;51.998;7.614;2023-08-01T09:13:13;12.93;;;6.20;;
23670;SDS011;12012;51.998;7.614;2023-08-01T09:15:39;10.20;;;5.70;;
23670;SDS011;12012;51.998;7.614;2023-08-01T09:18:09;11.43;;;5.87;;
23670;SDS011;12012;51.998;7.614;2023-08-01T09:20:53;9.30;;;5.43;;
23670;SDS011;12012;51.998;7.614;2023-08-01T09:23:19;8.73;;;5.32;;
23670;SDS011;12012;51.998;7.614;2023-08-01T09:25:44;12.07;;;6.28;;
23670;SDS011;12012;51.998;7.614;2023-08-01T09:28:23;10.20;;;5.40;;
23670;SDS011;12012;51.998;7.614;2023-08-01T09:30:49;13.23;;;5.68;;
23670;SDS011;12012;51.998;7.614;2023-08-01T09:33:16;8.23;;;5.70;;
23670;SDS011;12012;51.998;7.614;2023-08-01T09:35:43;10.75;;;5.82;;
23670;SDS011;12012;51.998;7.614;2023-08-01T09:38:14;10.93;;;5.57;;
23670;SDS011;12012;51.998;7.614;2023-08-01T09:40:40;8.50;;;5.32;;
23670;SDS011;12012;51.998;7.614;2023-08-01T09:43:07;10.95;;;6.15;;
23670;SDS011;12012;51.998;7.614;2023-08-01T09:45:33;10.10;;;5.57;;
23670;SDS011;12012;51.998;7.614;2023-08-01T09:48:01;11.85;;;5.60;;
23670;SDS011;12012;51.998;7.614;2023-08-01T09:50:27;8.40;;;5.68;;
23670;SDS011;12012;51.998;7.614;2023-08-01T09:52:53;11.02;;;4.82;;
23670;SDS011;12012;51.998;7.614;2023-08-01T09:55:20;9.63;;;4.95;;
23670;SDS011;12012;51.998;7.614;2023-08-01T09:57:51;9.35;;;4.15;;
23670;SDS011;12012;51.998;7.614;2023-08-01T10:00:18;6.72;;;3.85;;
23670;SDS011;12012;51.998;7.614;2023-08-01T10:02:43;9.05;;;4.20;;
23670;SDS011;12012;51.998;7.614;2023-08-01T10:05:10;9.23;;;3.80;;
23670;SDS011;12012;51.998;7.614;2023-08-01T10:07:37;9.05;;;3.80;;
23670;SDS011;12012;51.998;7.614;2023-08-01T10:10:05;10.35;;;3.72;;
23670;SDS011;12012;51.998;7.614;2023-08-01T10:12:32;7.57;;;3.90;;
23670;SDS011;12012;51.998;7.614;2023-08-01T10:14:58;6.82;;;4.20;;
23670;SDS011;12012;51.998;7.614;2023-08-01T10:17:25;7.88;;;3.60;;
23670;SDS011;12012;51.998;7.614;2023-08-01T10:19:52;9.23;;;4.05;;
23670;SDS011;12012;51.998;7.614;2023-08-01T10:22:21;10.63;;;4.80;;
23670;SDS011;12012;51.998;7.614;2023-08-01T10:24:47;11.20;;;5.03;;
23670;SDS011;12012;51.998;7.614;2023-08-01T10:27:14;9.48;;;4.50;;
23670;SDS011;12012;51.998;7.614;2023-08-01T10:29:40;9.13;;;4.28;;
23670;SDS011;12012;51.998;7.614;2023-08-01T10:32:07;10.23;;;4.70;;
23670;SDS011;12012;51.998;7.614;2023-08-01T10:34:33;10.50;;;4.22;;
23670;SDS011;12012;51.998;7.614;2023-08-01T10:36:59;9.45;;;4.20;;
23670;SDS011;12012;51.998;7.614;2023-08-01T10:39:26;8.48;;;3.90;;
23670;SDS011;12012;51.998;7.614;2023-08-01T10:42:02;6.85;;;4.15;;
23670;SDS011;12012;51.998;7.614;2023-08-01T10:44:30;7.60;;;3.90;;
23670;SDS011;12012;51.998;7.614;2023-08-01T10:47:01;8.18;;;4.20;;
23670;SDS011;12012;51.998;7.614;2023-08-01T10:49:35;9.52;;;4.65;;
23670;SDS011;12012;51.998;7.614;2023-08-01T10:52:03;6.05;;;3.90;;
23670;SDS011;12012;51.998;7.614;2023-08-01T10:54:29;8.60;;;4.63;;
23670;SDS011;12012;51.998;7.614;2023-08-01T10:56:56;7.10;;;3.92;;
23670;SDS011;12012;51.998;7.614;2023-08-01T10:59:26;6.90;;;4.28;;
23670;SDS011;12012;51.998;7.614;2023-08-01T11:01:53;7.40;;;4.18;;
23670;SDS011;12012;51.998;7.614;2023-08-01T11:04:23;6.03;;;3.80;;
23670;SDS011;12012;51.998;7.614;2023-08-01T11:06:49;8.57;;;3.85;;
23670;SDS011;12012;51.998;7.614;2023-08-01T11:09:20;6.57;;;3.80;;
23670;SDS011;12012;51.998;7.614;2023-08-01T11:11:51;7.07;;;3.60;;
23670;SDS011;12012;51.998;7.614;2023-08-01T11:14:27;11.20;;;4.82;;
23670;SDS011;12012;51.998;7.614;2023-08-01T11:16:54;9.00;;;3.85;;
23670;SDS011;12012;51.998;7.614;2023-08-01T11:19:22;8.65;;;3.97;;
23670;SDS011;12012;51.998;7.614;2023-08-01T11:21:52;8.50;;;4.30;;
23670;SDS011;12012;51.998;7.614;2023-08-01T11:24:19;10.77;;;4.20;;
23670;SDS011;12012;51.998;7.614;2023-08-01T11:26:46;10.18;;;4.28;;
23670;SDS011;12012;51.998;7.614;2023-08-01T11:29:13;7.93;;;3.75;;
23670;SDS011;12012;51.998;7.614;2023-08-01T11:31:39;7.88;;;3.95;;
23670;SDS011;12012;51.998;7.614;2023-08-01T11:34:08;7.72;;;3.28;;
23670;SDS011;12012;51.998;7.614;2023-08-01T11:36:35;7.38;;;3.17;;
23670;SDS011;12012;51.998;7.614;2023-08-01T11:39:01;5.88;;;3.33;;
23670;SDS011;12012;51.998;7.614;2023-08-01T11:41:27;4.85;;;3.00;;
23670;SDS011;12012;51.998;7.614;2023-08-01T11:43:54;10.80;;;3.40;;
23670;SDS011;12012;51.998;7.614;2023-08-01T11:46:20;6.55;;;3.17;;
23670;SDS011;12012;51.998;7.614;2023-08-01T11:48:47;5.80;;;2.95;;
23670;SDS011;12012;51.998;7.614;2023-08-01T11:51:12;4.00;;;2.67;;
23670;SDS011;12012;51.998;7.614;2023-08-01T11:53:38;6.18;;;3.03;;
23670;SDS011;12012;51.998;7.614;2023-08-01T11:56:04;6.78;;;2.40;;
23670;SDS011;12012;51.998;7.614;2023-08-01T11:58:30;5.57;;;2.97;;
23670;SDS011;12012;51.998;7.614;2023-08-01T12:01:06;6.82;;;3.15;;
23670;SDS011;12012;51.998;7.614;2023-08-01T12:03:43;7.97;;;2.95;;
23670;SDS011;12012;51.998;7.614;2023-08-01T12:06:11;6.38;;;3.75;;
23670;SDS011;12012;51.998;7.614;2023-08-01T12:08:39;6.68;;;3.80;;
23670;SDS011;12012;51.998;7.614;2023-08-01T12:11:16;7.65;;;3.58;;
23670;SDS011;12012;51.998;7.614;2023-08-01T12:13:46;8.07;;;3.63;;
23670;SDS011;12012;51.998;7.614;2023-08-01T12:16:13;6.60;;;3.08;;
23670;SDS011;12012;51.998;7.614;2023-08-01T12:18:42;6.35;;;2.90;;
23670;SDS011;12012;51.998;7.614;2023-08-01T12:21:09;8.20;;;2.88;;
23670;SDS011;12012;51.998;7.614;2023-08-01T12:23:35;5.72;;;3.10;;
23670;SDS011;12012;51.998;7.614;2023-08-01T12:26:01;8.57;;;3.60;;
23670;SDS011;12012;51.998;7.614;2023-08-01T12:28:26;6.25;;;3.22;;
23670;SDS011;12012;51.998;7.614;2023-08-01T12:30:52;8.07;;;3.83;;
23670;SDS011;12012;51.998;7.614;2023-08-01T12:33:18;7.25;;;3.20;;
23670;SDS011;12012;51.998;7.614;2023-08-01T12:35:43;7.60;;;3.78;;
23670;SDS011;12012;51.998;7.614;2023-08-01T12:38:09;7.95;;;3.40;;
23670;SDS011;12012;51.998;7.614;2023-08-01T12:40:35;7.80;;;3.17;;
23670;SDS011;12012;51.998;7.614;2023-08-01T12:43:01;8.00;;;3.83;;
23670;SDS011;12012;51.998;7.614;2023-08-01T12:45:27;6.70;;;3.25;;
23670;SDS011;12012;51.998;7.614;2023-08-01T12:47:53;6.10;;;3.10;;
23670;SDS011;12012;51.998;7.614;2023-08-01T12:50:18;9.35;;;4.65;;
23670;SDS011;12012;51.998;7.614;2023-08-01T12:52:44;6.18;;;3.30;;
23670;SDS011;12012;51.998;7.614;2023-08-01T12:55:09;8.18;;;3.70;;
23670;SDS011;12012;51.998;7.614;2023-08-01T12:57:35;6.00;;;3.17;;
23670;SDS011;12012;51.998;7.614;2023-08-01T13:00:00;6.93;;;3.28;;
23670;SDS011;12012;51.998;7.614;2023-08-01T13:02:26;7.88;;;2.65;;
23670;SDS011;12012;51.998;7.614;2023-08-01T13:04:52;5.03;;;2.72;;
23670;SDS011;12012;51.998;7.614;2023-08-01T13:07:17;8.00;;;2.67;;
23670;SDS011;12012;51.998;7.614;2023-08-01T13:09:43;6.55;;;2.60;;
23670;SDS011;12012;51.998;7.614;2023-08-01T13:12:09;5.53;;;2.20;;
23670;SDS011;12012;51.998;7.614;2023-08-01T13:14:34;4.85;;;2.53;;
23670;SDS011;12012;51.998;7.614;2023-08-01T13:17:00;4.97;;;2.50;;
23670;SDS011;12012;51.998;7.614;2023-08-01T13:19:25;6.35;;;2.63;;
23670;SDS011;12012;51.998;7.614;2023-08-01T13:21:51;5.10;;;2.63;;
23670;SDS011;12012;51.998;7.614;2023-08-01T13:24:16;3.60;;;2.22;;
23670;SDS011;12012;51.998;7.614;2023-08-01T13:26:42;6.03;;;2.20;;
23670;SDS011;12012;51.998;7.614;2023-08-01T13:29:08;7.25;;;2.35;;
23670;SDS011;12012;51.998;7.614;2023-08-01T13:31:33;7.32;;;2.60;;
23670;SDS011;12012;51.998;7.614;2023-08-01T13:33:59;3.55;;;2.30;;
23670;SDS011;12012;51.998;7.614;2023-08-01T13:36:24;6.78;;;2.67;;
23670;SDS011;12012;51.998;7.614;2023-08-01T13:38:50;6.53;;;2.50;;
23670;SDS011;12012;51.998;7.614;2023-08-01T13:41:16;6.18;;;2.55;;
23670;SDS011;12012;51.998;7.614;2023-08-01T13:43:41;6.15;;;2.17;;
23670;SDS011;12012;51.998;7.614;2023-08-01T13:46:14;6.10;;;2.55;;
23670;SDS011;12012;51.998;7.614;2023-08-01T13:48:41;5.85;;;2.67;;
23670;SDS011;12012;51.998;7.614;2023-08-01T13:51:10;6.85;;;3.03;;
23670;SDS011;12012;51.998;7.614;2023-08-01T13:53:36;8.38;;;3.17;;
23670;SDS011;12012;51.998;7.614;2023-08-01T13:56:07;5.43;;;2.38;;
23670;SDS011;12012;51.998;7.614;2023-08-01T13:58:34;5.82;;;2.40;;
23670;SDS011;12012;51.998;7.614;2023-08-01T14:01:03;6.05;;;2.60;;
23670;SDS011;12012;51.998;7.614;2023-08-01T14:03:29;9.70;;;2.70;;
23670;SDS011;12012;51.998;7.614;2023-08-01T14:06:08;9.65;;;2.83;;
23670;SDS011;12012;51.998;7.614;2023-08-01T14:08:35;4.97;;;2.60;;
23670;SDS011;12012;51.998;7.614;2023-08-01T14:11:04;6.10;;;2.53;;
23670;SDS011;12012;51.998;7.614;2023-08-01T14:13:31;8.23;;;2.80;;
23670;SDS011;12012;51.998;7.614;2023-08-01T14:15:57;6.88;;;2.78;;
23670;SDS011;12012;51.998;7.614;2023-08-01T14:18:23;5.82;;;2.30;;
23670;SDS011;12012;51.998;7.614;2023-08-01T14:20:49;5.10;;;2.35;;
23670;SDS011;12012;51.998;7.614;2023-08-01T14:23:14;5.18;;;2.33;;
23670;SDS011;12012;51.998;7.614;2023-08-01T14:25:40;4.95;;;2.05;;
23670;SDS011;12012;51.998;7.614;2023-08-01T14:28:06;5.13;;;2.05;;
23670;SDS011;12012;51.998;7.614;2023-08-01T14:30:32;5.45;;;2.08;;
23670;SDS011;12012;51.998;7.614;2023-08-01T14:33:00;5.35;;;2.38;;
23670;SDS011;12012;51.998;7.614;2023-08-01T14:35:26;3.75;;;1.95;;